Time;durP1;ratioP1;P1;durP2;ratioP2;P2;SDS_P1;SDS_P2;PMS_P1;PMS_P2;Temp;Humidity;BMP_temperature;BMP_pressure;BME280_temperature;BME280_humidity;BME280_pressure;Samples;Min_cycle;Max_cycle;Signal;HPM_P1;HPM_P2
2022/11/27 00:04:34;;;;;;;129.00;44.33;;;3.20;99.90;;;;;;10443709;28;20484;-82
2022/11/27 00:09:34;;;;;;;148.83;49.93;;;3.20;99.90;;;;;;10455664;28;20029;-81
2022/11/27 00:14:35;;;;;;;153.10;50.57;;;3.20;99.90;;;;;;10444798;28;20048;-80
2022/11/27 00:19:35;;;;;;;129.30;51.97;;;3.20;99.90;;;;;;10443556;28;20065;-81
2022/11/27 00:24:36;;;;;;;138.57;52.17;;;3.10;99.90;;;;;;10444967;28;20037;-80
2022/11/27 00:29:36;;;;;;;150.70;54.17;;;3.20;99.90;;;;;;10442020;28;20051;-80
2022/11/27 00:34:37;;;;;;;181.70;64.63;;;3.20;99.90;;;;;;10445482;28;20565;-81
2022/11/27 00:39:37;;;;;;;165.17;55.00;;;3.20;99.90;;;;;;10442923;28;20104;-81
2022/11/27 00:44:38;;;;;;;170.50;52.97;;;3.30;99.90;;;;;;10450786;28;20041;-81
2022/11/27 00:49:38;;;;;;;154.33;62.07;;;3.30;99.90;;;;;;10456177;28;20554;-81
2022/11/27 00:54:39;;;;;;;178.63;59.43;;;3.30;99.90;;;;;;10441916;28;20048;-80
2022/11/27 00:59:39;;;;;;;171.43;60.77;;;3.30;99.90;;;;;;10444333;28;20029;-81
2022/11/27 01:04:40;;;;;;;185.50;62.67;;;3.30;99.90;;;;;;10452764;28;20021;-80
2022/11/27 01:09:41;;;;;;;154.57;60.30;;;3.30;99.90;;;;;;10456773;28;20025;-80
2022/11/27 01:14:41;;;;;;;171.37;66.33;;;3.30;99.90;;;;;;10448112;28;20439;-81
2022/11/27 01:19:42;;;;;;;178.37;67.40;;;3.30;99.90;;;;;;10456968;22;20524;-82
2022/11/27 01:24:42;;;;;;;194.77;72.20;;;3.30;99.90;;;;;;10449374;28;20025;-81
2022/11/27 01:29:44;;;;;;;187.57;66.40;;;3.30;99.90;;;;;;10449480;28;20059;-81
2022/11/27 01:34:44;;;;;;;180.07;67.20;;;3.20;99.90;;;;;;10449132;28;20084;-81
2022/11/27 01:39:45;;;;;;;209.67;75.87;;;3.20;99.90;;;;;;10448663;28;20112;-81
2022/11/27 01:44:49;;;;;;;196.73;69.07;;;3.20;99.90;;;;;;10449463;28;20044;-82
2022/11/27 01:49:53;;;;;;;193.60;71.33;;;3.20;99.90;;;;;;10448066;28;20784;-82
2022/11/27 01:55:09;;;;;;;209.93;74.67;;;3.30;99.90;;;;;;10448688;28;20627;-81
2022/11/27 02:00:12;;;;;;;209.73;77.73;;;3.30;99.90;;;;;;10447607;28;20136;-82
2022/11/27 02:05:18;;;;;;;247.43;87.90;;;3.30;99.90;;;;;;10448544;28;20025;-81
2022/11/27 02:10:19;;;;;;;179.73;64.80;;;3.30;99.90;;;;;;10430673;28;20141;-80
2022/11/27 02:15:54;;;;;;;258.93;94.30;;;3.30;99.90;;;;;;10444700;28;20033;-81
2022/11/27 02:21:00;;;;;;;255.27;90.43;;;3.30;99.90;;;;;;10410767;28;20167;-80
2022/11/27 02:26:17;;;;;;;262.07;93.37;;;3.20;99.90;;;;;;10447461;28;20785;-82
2022/11/27 02:31:21;;;;;;;;;;;3.20;99.90;;;;;;10440551;28;20029;-81
2022/11/27 02:36:28;;;;;;;203.73;76.63;;;3.20;99.90;;;;;;10446454;28;19994;-82
2022/11/27 02:41:36;;;;;;;193.90;71.53;;;3.10;99.90;;;;;;10445749;28;20025;-80
2022/11/27 02:46:37;;;;;;;164.73;59.40;;;3.10;99.90;;;;;;10445429;28;20905;-80
2022/11/27 02:51:46;;;;;;;131.83;50.87;;;3.00;99.90;;;;;;10446191;28;20025;-81
2022/11/27 02:56:49;;;;;;;156.90;61.10;;;3.10;99.90;;;;;;10444268;28;20025;-83
2022/11/27 03:01:57;;;;;;;177.07;59.20;;;3.10;99.90;;;;;;10446030;28;20780;-80
2022/11/27 03:07:03;;;;;;;167.47;57.63;;;3.00;99.90;;;;;;10445517;28;20432;-82
2022/11/27 03:12:07;;;;;;;158.02;59.25;;;3.00;99.90;;;;;;10445465;28;20024;-81
2022/11/27 03:17:26;;;;;;;182.37;61.27;;;2.90;99.90;;;;;;10444697;28;20049;-81
2022/11/27 03:22:27;;;;;;;160.30;59.00;;;2.90;99.90;;;;;;10444622;28;20120;-82
2022/11/27 03:27:44;;;;;;;173.90;62.37;;;2.90;99.90;;;;;;10444802;28;20029;-80
2022/11/27 03:32:44;;;;;;;202.13;69.97;;;2.90;99.90;;;;;;10443903;28;20045;-80
2022/11/27 03:37:45;;;;;;;182.50;60.93;;;2.80;99.90;;;;;;10445649;28;20044;-81
2022/11/27 03:43:00;;;;;;;172.57;63.37;;;2.90;99.90;;;;;;10443800;28;20029;-80
2022/11/27 03:48:19;;;;;;;158.67;57.20;;;2.90;99.90;;;;;;10444201;28;20707;-82
2022/11/27 03:53:38;;;;;;;150.30;52.33;;;2.90;99.90;;;;;;10425883;28;20560;-80
2022/11/27 03:58:50;;;;;;;179.37;61.07;;;2.90;99.90;;;;;;10443416;28;20048;-83
2022/11/27 04:03:52;;;;;;;95.47;38.23;;;2.90;99.90;;;;;;10442386;28;20036;-80
2022/11/27 04:08:52;;;;;;;108.07;39.93;;;2.80;99.90;;;;;;10425301;28;20078;-81
2022/11/27 04:13:53;;;;;;;105.70;40.27;;;2.70;99.90;;;;;;10443589;28;20107;-81
2022/11/27 04:18:53;;;;;;;107.97;38.87;;;2.60;99.90;;;;;;10425353;28;20067;-81
2022/11/27 04:23:54;;;;;;;99.97;39.90;;;2.60;99.90;;;;;;10442495;28;20574;-80
2022/11/27 04:28:54;;;;;;;103.60;40.03;;;2.60;99.90;;;;;;10443922;28;20480;-83
2022/11/27 04:33:55;;;;;;;106.57;39.70;;;2.60;99.90;;;;;;10443412;28;20053;-81
2022/11/27 04:38:55;;;;;;;109.27;43.20;;;2.60;99.90;;;;;;10442333;28;20047;-83
2022/11/27 04:43:56;;;;;;;115.97;46.90;;;2.70;99.90;;;;;;10442281;28;20534;-81
2022/11/27 04:48:57;;;;;;;111.47;41.47;;;2.70;99.90;;;;;;10412039;28;20038;-81
2022/11/27 04:53:57;;;;;;;108.73;45.53;;;2.70;99.90;;;;;;10441787;28;20052;-81
2022/11/27 04:58:58;;;;;;;113.13;44.33;;;2.70;99.90;;;;;;10441005;28;20031;-81
2022/11/27 05:03:58;;;;;;;126.33;44.97;;;2.70;99.90;;;;;;10442218;28;20083;-80
2022/11/27 05:09:00;;;;;;;116.97;44.67;;;2.70;99.90;;;;;;10424588;28;20179;-82
2022/11/27 05:14:21;;;;;;;137.57;51.30;;;2.70;99.90;;;;;;10441627;28;20059;-81
2022/11/27 05:19:23;;;;;;;116.13;47.93;;;2.60;99.90;;;;;;10423972;28;20053;-81
2022/11/27 05:24:26;;;;;;;114.20;47.07;;;2.50;99.90;;;;;;10431026;28;20037;-81
2022/11/27 05:29:27;;;;;;;125.00;47.47;;;2.50;99.90;;;;;;10440737;28;20536;-82
2022/11/27 05:34:27;;;;;;;130.13;51.87;;;2.50;99.90;;;;;;10439812;28;20039;-80
2022/11/27 05:39:28;;;;;;;169.67;65.30;;;2.50;99.90;;;;;;10432133;28;20499;-82
2022/11/27 05:44:29;;;;;;;182.37;72.73;;;2.50;99.90;;;;;;10431462;28;20048;-80
2022/11/27 05:49:29;;;;;;;166.47;67.10;;;2.60;99.90;;;;;;10440122;28;20040;-81
2022/11/27 05:54:30;;;;;;;180.63;74.43;;;2.50;99.90;;;;;;10441024;28;20041;-83
2022/11/27 05:59:30;;;;;;;146.80;62.77;;;2.50;99.90;;;;;;10440188;28;20071;-81
2022/11/27 06:04:34;;;;;;;178.60;69.83;;;2.50;99.90;;;;;;10432524;28;20064;-80
2022/11/27 06:09:37;;;;;;;195.83;74.90;;;2.50;99.90;;;;;;10446274;28;20045;-80
2022/11/27 06:14:37;;;;;;;154.93;64.60;;;2.50;99.90;;;;;;10448184;28;20040;-82
2022/11/27 06:19:38;;;;;;;175.73;73.10;;;2.50;99.90;;;;;;10447442;28;20049;-80
2022/11/27 06:24:38;;;;;;;179.20;79.27;;;2.50;99.90;;;;;;10427254;28;20029;-81
2022/11/27 06:29:39;;;;;;;155.30;64.87;;;2.50;99.90;;;;;;10432826;28;20083;-83
2022/11/27 06:34:39;;;;;;;133.27;55.23;;;2.60;99.90;;;;;;10447654;28;20040;-81
2022/11/27 06:39:40;;;;;;;115.43;46.77;;;2.60;99.90;;;;;;10447007;28;20029;-80
2022/11/27 06:44:41;;;;;;;119.23;49.43;;;2.70;99.90;;;;;;10447260;28;20032;-81
2022/11/27 06:49:41;;;;;;;147.03;54.83;;;2.70;99.90;;;;;;10447005;28;20120;-81
2022/11/27 06:54:42;;;;;;;132.60;55.37;;;2.70;99.90;;;;;;10446951;28;20052;-80
2022/11/27 06:59:42;;;;;;;208.67;94.07;;;2.80;99.90;;;;;;10443441;28;20039;-80
2022/11/27 07:04:43;;;;;;;196.47;68.63;;;2.90;99.90;;;;;;10446191;28;20040;-80
2022/11/27 07:09:44;;;;;;;138.00;53.80;;;2.90;99.90;;;;;;10427843;28;20392;-80
2022/11/27 07:14:44;;;;;;;132.33;50.97;;;2.90;99.90;;;;;;10430267;28;20056;-80
2022/11/27 07:19:45;;;;;;;161.37;78.80;;;3.00;99.90;;;;;;10440459;28;20041;-80
2022/11/27 07:24:46;;;;;;;138.50;58.17;;;3.00;99.90;;;;;;10439206;28;20063;-80
2022/11/27 07:29:46;;;;;;;120.03;54.63;;;3.00;99.90;;;;;;10445359;28;20124;-81
2022/11/27 07:34:47;;;;;;;121.57;50.57;;;3.00;99.90;;;;;;10444636;28;20037;-80
2022/11/27 07:39:48;;;;;;;146.87;64.03;;;3.10;99.90;;;;;;10445006;28;20679;-81
2022/11/27 07:44:48;;;;;;;127.00;53.53;;;3.10;99.90;;;;;;10444512;28;20120;-81
2022/11/27 07:49:49;;;;;;;154.33;74.47;;;3.10;99.90;;;;;;10444978;28;20090;-82
2022/11/27 07:54:49;;;;;;;110.93;51.97;;;3.20;99.90;;;;;;10444296;28;20385;-82
2022/11/27 07:59:50;;;;;;;109.17;47.97;;;3.30;99.90;;;;;;10444121;28;20032;-83
2022/11/27 08:04:50;;;;;;;194.60;91.40;;;3.30;99.90;;;;;;10443354;28;20041;-83
2022/11/27 08:09:51;;;;;;;157.10;69.77;;;3.30;99.90;;;;;;10444320;28;20610;-80
2022/11/27 08:14:51;;;;;;;119.10;54.90;;;3.40;99.90;;;;;;10441196;28;20049;-82
2022/11/27 08:19:52;;;;;;;121.40;53.50;;;3.40;99.90;;;;;;10444104;28;20048;-81
2022/11/27 08:24:53;;;;;;;118.47;53.30;;;3.50;99.90;;;;;;10444617;28;20025;-82
2022/11/27 08:29:53;;;;;;;163.37;74.20;;;3.50;99.90;;;;;;10443122;28;20025;-83
2022/11/27 08:34:54;;;;;;;225.47;95.20;;;3.60;99.90;;;;;;10443808;28;20037;-82
2022/11/27 08:39:54;;;;;;;152.37;70.43;;;3.60;99.90;;;;;;10443115;28;20040;-84
2022/11/27 08:44:55;;;;;;;138.90;66.37;;;3.70;99.90;;;;;;10443221;28;20030;-81
2022/11/27 08:49:56;;;;;;;213.67;91.67;;;3.70;99.90;;;;;;10443015;28;20044;-83
2022/11/27 08:54:57;;;;;;;144.47;68.43;;;3.80;99.90;;;;;;10442688;28;20044;-83
2022/11/27 08:59:57;;;;;;;154.87;73.40;;;3.80;99.90;;;;;;10442923;28;20024;-80
2022/11/27 09:04:58;;;;;;;183.20;80.97;;;3.90;99.90;;;;;;10442506;28;20035;-82
2022/11/27 09:09:58;;;;;;;137.37;57.23;;;3.90;99.90;;;;;;10442390;28;20032;-83
2022/11/27 09:14:59;;;;;;;135.30;61.83;;;4.00;99.90;;;;;;10442750;28;20112;-81
2022/11/27 09:19:59;;;;;;;146.63;70.27;;;4.10;99.90;;;;;;10442092;28;20082;-82
2022/11/27 09:25:00;;;;;;;106.30;48.07;;;4.20;99.90;;;;;;10442162;28;20025;-82
2022/11/27 09:30:01;;;;;;;202.27;89.10;;;4.30;99.90;;;;;;10442151;28;20029;-81
2022/11/27 09:35:02;;;;;;;179.40;77.30;;;4.30;99.90;;;;;;10442118;28;20040;-82
2022/11/27 09:40:03;;;;;;;108.67;51.70;;;4.30;99.90;;;;;;10441487;28;20028;-84
2022/11/27 09:45:06;;;;;;;232.43;116.00;;;4.30;99.90;;;;;;10447976;28;20033;-81
2022/11/27 09:50:20;;;;;;;148.33;70.50;;;4.40;99.90;;;;;;10449593;28;20094;-85
2022/11/27 09:55:31;;;;;;;128.87;64.43;;;4.40;99.90;;;;;;10431599;28;20037;-81
2022/11/27 10:00:32;;;;;;;146.27;80.30;;;4.50;99.90;;;;;;10449127;28;20032;-83
2022/11/27 10:05:42;;;;;;;105.83;52.73;;;4.50;99.90;;;;;;10448526;28;20484;-82
2022/11/27 10:11:10;;;;;;;226.47;105.77;;;4.60;99.90;;;;;;10449333;28;20086;-81
2022/11/27 10:16:35;;;;;;;109.97;52.37;;;4.60;99.90;;;;;;10447902;28;20033;-81
2022/11/27 10:21:46;;;;;;;118.90;59.07;;;4.70;99.90;;;;;;10430349;28;20037;-81
2022/11/27 10:26:49;;;;;;;105.10;50.87;;;4.80;99.90;;;;;;10447394;28;20028;-81
2022/11/27 10:32:00;;;;;;;95.77;47.03;;;4.90;99.90;;;;;;10448198;28;20124;-81
2022/11/27 10:37:25;;;;;;;90.50;45.27;;;4.90;99.90;;;;;;10447695;28;20044;-81
2022/11/27 10:42:45;;;;;;;127.40;66.10;;;4.90;99.90;;;;;;10439643;28;20055;-83
2022/11/27 10:47:47;;;;;;;117.63;62.97;;;5.00;99.90;;;;;;10433439;28;20025;-83
2022/11/27 10:53:00;;;;;;;79.33;38.53;;;5.10;99.90;;;;;;10446106;28;20088;-82
2022/11/27 10:58:09;;;;;;;74.07;36.53;;;5.10;99.90;;;;;;10439623;28;20033;-84
2022/11/27 11:03:16;;;;;;;78.83;40.73;;;5.20;99.90;;;;;;10447553;28;20017;-81
2022/11/27 11:08:20;;;;;;;98.37;54.63;;;5.40;99.90;;;;;;10446455;28;20043;-84
2022/11/27 11:13:26;;;;;;;84.07;43.10;;;5.40;99.90;;;;;;10444141;28;20100;-81
2022/11/27 11:18:32;;;;;;;68.33;36.70;;;5.40;99.90;;;;;;10444627;28;20053;-83
2022/11/27 11:23:36;;;;;;;123.00;59.03;;;5.40;99.90;;;;;;10445852;28;20068;-82
2022/11/27 11:28:47;;;;;;;92.97;46.63;;;5.40;99.90;;;;;;10445172;28;20064;-82
2022/11/27 11:34:30;;;;;;;93.40;46.17;;;5.50;99.90;;;;;;10426890;28;20542;-82
2022/11/27 11:39:46;;;;;;;84.67;43.20;;;5.50;99.90;;;;;;10441251;28;20064;-83
2022/11/27 11:44:53;;;;;;;209.40;110.13;;;5.50;99.90;;;;;;10444621;28;20036;-82
2022/11/27 11:49:55;;;;;;;150.40;76.47;;;5.50;99.90;;;;;;10441302;28;20033;-82
2022/11/27 11:55:05;;;;;;;69.77;34.47;;;5.60;99.90;;;;;;10424387;28;20043;-82
2022/11/27 12:00:17;;;;;;;64.20;35.30;;;5.70;99.90;;;;;;10436659;28;20025;-82
2022/11/27 12:05:39;;;;;;;165.23;83.00;;;5.70;99.90;;;;;;10427841;28;20033;-83
2022/11/27 12:10:53;;;;;;;71.50;37.00;;;5.80;99.90;;;;;;10441086;28;20094;-81
2022/11/27 12:16:08;;;;;;;60.67;33.87;;;5.80;99.90;;;;;;10438268;28;20066;-84
2022/11/27 12:21:22;;;;;;;58.00;33.70;;;6.00;99.90;;;;;;10438999;28;20072;-84
2022/11/27 12:26:38;;;;;;;83.33;52.10;;;5.90;99.90;;;;;;10423177;28;20048;-85
2022/11/27 12:32:06;;;;;;;92.78;51.17;;;5.90;99.90;;;;;;10442182;28;20621;-82
2022/11/27 12:37:39;;;;;;;76.90;42.17;;;6.00;99.90;;;;;;10424212;28;20051;-83
2022/11/27 12:43:00;;;;;;;79.73;43.33;;;6.30;99.90;;;;;;10441687;28;20036;-85
2022/11/27 12:48:10;;;;;;;84.20;45.40;;;6.40;99.90;;;;;;10423867;28;20059;-85
2022/11/27 12:53:19;;;;;;;57.77;31.10;;;6.50;99.90;;;;;;10423421;28;20033;-82
2022/11/27 12:58:46;;;;;;;65.40;35.67;;;6.50;99.90;;;;;;10440573;28;20111;-86
2022/11/27 13:03:53;;;;;;;75.07;42.13;;;6.50;99.90;;;;;;10438226;28;20051;-82
2022/11/27 13:09:03;;;;;;;74.73;38.67;;;6.30;99.90;;;;;;10442396;28;20057;-86
2022/11/27 13:14:15;;;;;;;86.63;44.70;;;6.20;99.90;;;;;;10423468;28;20037;-81
2022/11/27 13:19:28;;;;;;;53.37;29.50;;;6.00;99.90;;;;;;10448430;28;20527;-85
2022/11/27 13:24:29;;;;;;;76.93;42.40;;;5.90;99.90;;;;;;10450235;28;20037;-81
2022/11/27 13:29:42;;;;;;;80.27;42.67;;;5.90;99.90;;;;;;10448551;28;20347;-81
2022/11/27 13:34:45;;;;;;;74.90;39.53;;;5.90;99.90;;;;;;10448943;28;20036;-81
2022/11/27 13:39:46;;;;;;;86.67;49.33;;;5.80;99.90;;;;;;10447656;28;20036;-81
2022/11/27 13:44:57;;;;;;;90.27;46.73;;;5.80;99.90;;;;;;10446972;28;20512;-82
2022/11/27 13:50:00;;;;;;;79.07;40.10;;;5.80;99.90;;;;;;10441627;28;20451;-85
2022/11/27 13:55:05;;;;;;;89.13;45.20;;;5.70;99.90;;;;;;10455726;28;20583;-81
2022/11/27 14:00:10;;;;;;;90.87;43.80;;;5.70;99.90;;;;;;10445320;28;20029;-81
2022/11/27 14:05:12;;;;;;;133.90;65.83;;;5.70;99.90;;;;;;10445366;28;20373;-81
2022/11/27 14:10:17;;;;;;;177.30;84.27;;;5.60;99.90;;;;;;10448736;28;20098;-81
2022/11/27 14:15:18;;;;;;;247.37;116.07;;;5.50;99.90;;;;;;10447475;28;20551;-82
2022/11/27 14:20:33;;;;;;;144.00;73.83;;;5.40;99.90;;;;;;10446115;28;20052;-84
2022/11/27 14:25:37;;;;;;;179.73;79.32;;;5.30;99.90;;;;;;10439337;28;20056;-81
2022/11/27 14:30:55;;;;;;;132.40;70.70;;;5.20;99.90;;;;;;10445662;28;21223;-87
2022/11/27 14:35:58;;;;;;;139.27;65.07;;;5.10;99.90;;;;;;10442067;28;20387;-84
2022/11/27 14:41:19;;;;;;;179.70;78.90;;;5.00;99.90;;;;;;10445877;28;20033;-82
2022/11/27 14:46:21;;;;;;;129.47;63.93;;;4.90;99.90;;;;;;10443918;28;20051;-86
2022/11/27 14:51:27;;;;;;;122.03;57.83;;;4.80;99.90;;;;;;10428106;28;20032;-81
2022/11/27 14:56:34;;;;;;;104.33;49.60;;;4.80;99.90;;;;;;10460933;28;20056;-82
2022/11/27 15:01:36;;;;;;;96.83;45.40;;;4.70;99.90;;;;;;10445648;28;20041;-86
2022/11/27 15:06:44;;;;;;;98.77;46.07;;;4.60;99.90;;;;;;10446541;28;20535;-82
2022/11/27 15:11:49;;;;;;;97.87;44.90;;;4.60;99.90;;;;;;10445480;28;20094;-86
2022/11/27 15:16:51;;;;;;;152.67;76.83;;;4.50;99.90;;;;;;10428546;28;20091;-87
2022/11/27 15:21:52;;;;;;;195.40;100.70;;;4.50;99.90;;;;;;10444671;28;20392;-89
2022/11/27 15:26:52;;;;;;;178.00;84.77;;;4.50;99.90;;;;;;10427798;28;20032;-82
2022/11/27 15:31:53;;;;;;;131.57;64.70;;;4.40;99.90;;;;;;10443886;28;20056;-82
2022/11/27 15:36:57;;;;;;;369.97;172.33;;;4.40;99.90;;;;;;10444991;28;20041;-81
2022/11/27 15:42:00;;;;;;;204.40;95.07;;;4.40;99.90;;;;;;10443549;28;20466;-84
2022/11/27 15:47:03;;;;;;;129.73;62.47;;;4.40;99.90;;;;;;10444756;28;20032;-82
2022/11/27 15:52:03;;;;;;;124.17;60.33;;;4.40;99.90;;;;;;10443368;28;20032;-89
2022/11/27 15:57:04;;;;;;;145.17;79.80;;;4.40;99.90;;;;;;10444659;28;20759;-83
2022/11/27 16:02:05;;;;;;;112.30;57.13;;;4.30;99.90;;;;;;10441871;28;20521;-81
2022/11/27 16:07:07;;;;;;;123.87;65.07;;;4.30;99.90;;;;;;10443198;28;20163;-87
2022/11/27 16:12:07;;;;;;;89.80;46.57;;;4.30;99.90;;;;;;10437590;28;20024;-82
2022/11/27 16:17:08;;;;;;;89.67;50.20;;;4.20;99.90;;;;;;10445897;28;20483;-81
2022/11/27 16:22:08;;;;;;;88.27;45.87;;;4.20;99.90;;;;;;10445848;28;20082;-83
2022/11/27 16:27:09;;;;;;;80.00;42.20;;;4.20;99.90;;;;;;10445287;28;20040;-82
2022/11/27 16:32:10;;;;;;;80.93;42.80;;;4.20;99.90;;;;;;10443724;28;20170;-83
2022/11/27 16:37:10;;;;;;;84.30;44.57;;;4.10;99.90;;;;;;10438963;28;20385;-81
2022/11/27 16:42:11;;;;;;;81.23;41.30;;;4.00;99.90;;;;;;10440169;28;20044;-89
2022/11/27 16:47:11;;;;;;;101.77;47.57;;;3.90;99.90;;;;;;10439482;28;20037;-83
2022/11/27 16:52:12;;;;;;;94.67;43.03;;;3.80;99.90;;;;;;10436175;28;20025;-82
2022/11/27 16:57:12;;;;;;;90.30;47.90;;;3.60;99.90;;;;;;10438413;28;20041;-82
2022/11/27 17:02:13;;;;;;;100.67;53.57;;;3.50;99.90;;;;;;10439087;28;20124;-83
2022/11/27 17:07:13;;;;;;;93.73;44.67;;;3.40;99.90;;;;;;10436108;28;20033;-82
2022/11/27 17:12:14;;;;;;;88.77;45.43;;;3.30;99.90;;;;;;10420245;28;20021;-86
2022/11/27 17:17:14;;;;;;;85.20;42.23;;;3.20;99.90;;;;;;10419176;28;20126;-85
2022/11/27 17:22:15;;;;;;;89.50;44.13;;;3.10;99.90;;;;;;10439666;28;20456;-84
2022/11/27 17:27:17;;;;;;;85.73;42.17;;;3.00;99.90;;;;;;10438573;28;20408;-82
2022/11/27 17:32:17;;;;;;;79.93;40.47;;;2.80;99.90;;;;;;10441130;28;20033;-81
2022/11/27 17:37:19;;;;;;;93.23;43.30;;;2.70;99.90;;;;;;10438104;28;20052;-87
2022/11/27 17:42:19;;;;;;;105.20;46.20;;;2.70;99.90;;;;;;10439557;28;20528;-83
2022/11/27 17:47:20;;;;;;;104.37;49.67;;;2.60;99.90;;;;;;10443687;28;20036;-85
2022/11/27 17:52:20;;;;;;;98.93;46.73;;;2.50;99.90;;;;;;10450622;28;20572;-84
2022/11/27 17:57:21;;;;;;;117.77;52.80;;;2.60;99.90;;;;;;10443784;28;20156;-83
2022/11/27 18:02:21;;;;;;;118.90;56.93;;;2.60;99.90;;;;;;10426076;28;20751;-82
2022/11/27 18:07:22;;;;;;;116.27;54.07;;;2.70;99.90;;;;;;10447141;28;20033;-82
2022/11/27 18:12:23;;;;;;;104.73;48.03;;;2.80;99.90;;;;;;10445315;28;20116;-86
2022/11/27 18:17:23;;;;;;;108.20;51.47;;;2.90;99.90;;;;;;10444982;28;20052;-82
2022/11/27 18:22:24;;;;;;;152.50;72.13;;;2.90;99.90;;;;;;10446241;28;20048;-87
2022/11/27 18:27:24;;;;;;;145.23;66.17;;;2.90;99.90;;;;;;10445997;28;20113;-87
2022/11/27 18:32:25;;;;;;;342.87;144.23;;;2.90;99.90;;;;;;10427961;28;20037;-83
2022/11/27 18:37:25;;;;;;;291.30;126.60;;;2.90;99.90;;;;;;10444721;28;20115;-81
2022/11/27 18:42:29;;;;;;;241.40;114.60;;;2.90;99.90;;;;;;10443614;28;20082;-83
2022/11/27 18:47:30;;;;;;;200.00;96.07;;;2.90;99.90;;;;;;10444719;28;20063;-87
2022/11/27 18:52:31;;;;;;;163.90;82.17;;;2.90;99.90;;;;;;10447783;28;20064;-83
2022/11/27 18:57:32;;;;;;;176.20;83.07;;;2.80;99.90;;;;;;10449408;28;20116;-88
2022/11/27 19:02:32;;;;;;;154.77;70.57;;;2.80;99.90;;;;;;10463495;28;20389;-85
2022/11/27 19:07:33;;;;;;;170.63;77.33;;;2.60;99.90;;;;;;10444254;28;20036;-82
2022/11/27 19:12:33;;;;;;;151.07;71.10;;;2.50;99.90;;;;;;10448359;28;20029;-82
2022/11/27 19:17:34;;;;;;;123.67;62.73;;;2.40;99.90;;;;;;10448295;28;20805;-82
2022/11/27 19:22:37;;;;;;;114.37;55.27;;;2.30;99.90;;;;;;10430290;28;20264;-85
2022/11/27 19:27:37;;;;;;;114.63;51.07;;;2.20;99.90;;;;;;10448257;28;20032;-82
2022/11/27 19:32:38;;;;;;;92.13;44.37;;;2.10;99.90;;;;;;10428985;28;20037;-88
2022/11/27 19:37:38;;;;;;;100.93;46.30;;;2.10;99.90;;;;;;10447784;28;20040;-85
2022/11/27 19:42:39;;;;;;;113.97;52.07;;;2.00;99.90;;;;;;10445806;28;20080;-83
2022/11/27 19:47:39;;;;;;;105.43;48.93;;;2.00;99.90;;;;;;10445642;28;20037;-83
2022/11/27 19:52:41;;;;;;;107.83;47.43;;;1.90;99.90;;;;;;10428944;28;20033;-85
2022/11/27 19:57:41;;;;;;;108.63;47.50;;;1.90;99.90;;;;;;10446431;28;20480;-86
2022/11/27 20:02:43;;;;;;;104.00;46.73;;;2.00;99.90;;;;;;10428810;28;20051;-82
2022/11/27 20:07:44;;;;;;;104.10;48.97;;;2.00;99.90;;;;;;10446567;28;20226;-88
2022/11/27 20:12:45;;;;;;;123.03;56.43;;;2.00;99.90;;;;;;10429248;28;20041;-82
2022/11/27 20:17:45;;;;;;;142.57;65.57;;;2.00;99.90;;;;;;10442248;28;20053;-87
2022/11/27 20:22:46;;;;;;;163.70;79.17;;;1.90;99.90;;;;;;10440250;28;20046;-82
2022/11/27 20:27:47;;;;;;;166.97;76.63;;;1.70;99.90;;;;;;10438532;28;20045;-85
2022/11/27 20:32:47;;;;;;;154.53;74.10;;;1.50;99.90;;;;;;10437500;28;20598;-81
2022/11/27 20:37:48;;;;;;;176.07;78.07;;;1.40;99.90;;;;;;10440220;28;20132;-81
2022/11/27 20:42:49;;;;;;;174.33;80.23;;;1.30;99.90;;;;;;10439664;28;20053;-81
2022/11/27 20:47:49;;;;;;;154.30;72.03;;;1.20;99.90;;;;;;10421037;28;20103;-81
2022/11/27 20:52:50;;;;;;;157.07;73.23;;;1.10;99.90;;;;;;10438658;28;20037;-85
2022/11/27 20:57:50;;;;;;;195.07;88.43;;;1.10;99.90;;;;;;10438157;28;20029;-81
2022/11/27 21:02:51;;;;;;;158.83;75.63;;;1.10;99.90;;;;;;10438932;28;20028;-83
2022/11/27 21:07:51;;;;;;;165.43;75.90;;;1.10;99.90;;;;;;10438488;28;20116;-82
2022/11/27 21:12:52;;;;;;;174.67;77.50;;;1.00;99.90;;;;;;10419693;28;20040;-81
2022/11/27 21:17:52;;;;;;;180.87;77.37;;;0.90;99.90;;;;;;10439606;28;20056;-88
2022/11/27 21:22:53;;;;;;;175.30;82.03;;;0.90;99.90;;;;;;10440015;28;20485;-81
2022/11/27 21:27:56;;;;;;;197.93;86.70;;;0.80;99.90;;;;;;10438661;28;20032;-83
2022/11/27 21:32:57;;;;;;;180.60;82.70;;;0.90;99.90;;;;;;10439439;28;20763;-81
2022/11/27 21:37:57;;;;;;;172.97;80.87;;;0.90;99.90;;;;;;10440798;28;20040;-82
2022/11/27 21:42:58;;;;;;;183.73;80.50;;;0.80;99.90;;;;;;10447798;28;20503;-82
2022/11/27 21:47:58;;;;;;;152.33;72.57;;;0.80;99.90;;;;;;10446180;28;20037;-83
2022/11/27 21:52:59;;;;;;;135.80;64.10;;;0.80;99.90;;;;;;10429429;28;20037;-83
2022/11/27 21:58:00;;;;;;;127.47;58.07;;;0.90;99.90;;;;;;10446682;28;20036;-83
2022/11/27 22:03:00;;;;;;;104.53;48.77;;;0.90;99.90;;;;;;10447015;28;20024;-85
2022/11/27 22:08:01;;;;;;;110.53;50.20;;;1.00;99.90;;;;;;10445631;28;20035;-81
2022/11/27 22:13:01;;;;;;;122.60;53.90;;;1.00;99.90;;;;;;10425763;28;20033;-82
2022/11/27 22:18:02;;;;;;;118.63;51.37;;;1.00;99.90;;;;;;10427391;28;20127;-82
2022/11/27 22:23:03;;;;;;;105.20;47.20;;;1.00;99.90;;;;;;10445722;28;20053;-81
2022/11/27 22:28:03;;;;;;;104.00;45.30;;;1.00;99.90;;;;;;10445143;28;20025;-85
2022/11/27 22:33:04;;;;;;;164.37;74.97;;;1.00;99.90;;;;;;10446078;28;20412;-84
2022/11/27 22:38:04;;;;;;;193.53;88.00;;;0.90;99.90;;;;;;10445160;28;20852;-81
2022/11/27 22:43:05;;;;;;;185.57;82.23;;;0.70;99.90;;;;;;10446516;28;20033;-82
2022/11/27 22:48:05;;;;;;;185.57;77.27;;;0.60;99.90;;;;;;10444328;28;20036;-83
2022/11/27 22:53:06;;;;;;;171.00;75.93;;;0.50;99.90;;;;;;10445008;28;20136;-81
2022/11/27 22:58:07;;;;;;;166.67;72.00;;;0.40;99.90;;;;;;10443004;28;20033;-81
2022/11/27 23:03:07;;;;;;;184.23;72.93;;;0.40;99.90;;;;;;10443277;28;20033;-81
2022/11/27 23:08:08;;;;;;;168.23;72.53;;;0.30;99.90;;;;;;10444003;28;20037;-88
2022/11/27 23:13:08;;;;;;;157.13;68.57;;;0.30;99.90;;;;;;10425170;28;20469;-82
2022/11/27 23:18:10;;;;;;;148.60;62.73;;;0.30;99.90;;;;;;10443964;28;20052;-83
2022/11/27 23:23:11;;;;;;;158.93;65.20;;;0.30;99.90;;;;;;10439538;28;20377;-81
2022/11/27 23:28:11;;;;;;;156.67;63.97;;;0.30;99.90;;;;;;10441860;28;20033;-88
2022/11/27 23:33:12;;;;;;;136.70;59.37;;;0.30;99.90;;;;;;10442997;28;20709;-84
2022/11/27 23:38:12;;;;;;;151.43;67.07;;;0.30;99.90;;;;;;10424170;28;20028;-81
2022/11/27 23:43:13;;;;;;;162.50;74.80;;;0.30;99.90;;;;;;10442004;28;20031;-90
2022/11/27 23:48:13;;;;;;;147.37;65.17;;;0.30;99.90;;;;;;10441496;28;20028;-81
2022/11/27 23:53:14;;;;;;;126.33;59.27;;;0.40;99.90;;;;;;10440658;28;20114;-81
2022/11/27 23:58:14;;;;;;;112.80;53.73;;;0.60;99.90;;;;;;10441571;28;20467;-85
